Terminal Aerodrome Forecast
Issued by NWS

Home | Current Version | Previous Version | Text Only | Print | Product List | Glossary On
Versions: 1 2 3 4 5 6 7 8 9 10 11 12 13 14 15 16 17 18
000
FTUS41 KILN 312332 CCA
TAFLCK
TAF COR
KLCK 312332Z 0100/0124 VRB03KT P6SM BKN200
     FM010600 VRB03KT P6SM SCT250
     FM011400 14005KT P6SM SCT150
     FM011800 15007KT P6SM SCT040 SCT100=

USA.gov is the U.S. government's official web portal to all federal, state and local government web resources and services.